Main page
METAR-TAF:

METAR-TAF

Airports :

Balad, Iraq

Balad Air Base

latitude: 33-56N, longitude: 44-22E, elevation: 49 m

Current weather observation

The report was made 28 minutes ago, at 06:55 UTC
Wind 7 kt from the North
Temperature 42°C
Humidity 12%
Pressure 1006 hPa
Visibility 10 km or more
Clear sky

METAR: ORBD 190655Z 35007KT 9999 CLR 42/07 A2971 RMK WND DATA/ALSTG ESTMD

Time: 10:23 (07:23 UTC)

Forecast

Forecast valid from 19 at 03 UTC to 20 at 09 UTC
Wind 9 kt from the North, varying between Northwest and North/Northeast
Visibility: 9000 m
Clear sky
haze
Temporary
from 19 at 07 UTC to 19 at 16 UTC
Wind 14 kt from the North/Northwest with gusts up to 24 kt, varying between West/Northwest and North
Visibility: 8000 m
haze

TAF: ORBD 1903/2009 35009KT 9000 HZ SKC QNH2960INS WND 320V020 TEMPO 1907/1916 34014G24KT 8000 HZ WND 290V010 TX45/1912Z TN32/2003Z

Weather observations and forecasts of more than 4000 airports (METAR and TAF reports).

The available stations are represented by yellow and red dots on the map.

Hover mouse over dot to see the name of the station.

Then click to see weather observations and forecasts.

To change the map : click on the green buttons with a black cross to zoom in, on the green button with a dash to zoom out, or on the green arrows for adjacent maps.


METAR-TAF: